createdAt,value
2023-05-15T00:02:20.438Z,11.78
2023-05-15T00:04:47.081Z,11.78
2023-05-15T00:07:13.612Z,11.84
2023-05-15T00:09:40.100Z,11.89
2023-05-15T00:12:06.953Z,11.76
2023-05-15T00:14:33.359Z,11.70
2023-05-15T00:16:59.870Z,11.75
2023-05-15T00:19:26.367Z,11.78
2023-05-15T00:21:52.874Z,11.70
2023-05-15T00:24:19.474Z,11.73
2023-05-15T00:26:45.980Z,11.78
2023-05-15T00:29:12.411Z,11.68
2023-05-15T00:31:38.877Z,11.68
2023-05-15T00:34:05.423Z,11.65
2023-05-15T00:36:31.954Z,11.66
2023-05-15T00:38:58.442Z,11.69
2023-05-15T00:41:26.052Z,11.67
2023-05-15T00:43:53.192Z,11.65
2023-05-15T00:46:21.275Z,11.68
2023-05-15T00:48:49.908Z,11.58
2023-05-15T00:51:17.179Z,11.62
2023-05-15T00:53:44.497Z,11.61
2023-05-15T00:56:12.575Z,11.59
2023-05-15T00:58:39.590Z,11.68
2023-05-15T01:01:08.221Z,11.69
2023-05-15T01:03:35.767Z,11.71
2023-05-15T01:06:02.361Z,11.73
2023-05-15T01:08:43.828Z,11.66
2023-05-15T01:11:13.006Z,11.64
2023-05-15T01:13:39.573Z,11.63
2023-05-15T01:16:07.262Z,11.62
2023-05-15T01:18:33.981Z,11.54
2023-05-15T01:21:06.336Z,11.52
2023-05-15T01:23:52.142Z,11.47
2023-05-15T01:26:29.396Z,11.41
2023-05-15T01:29:04.714Z,11.50
2023-05-15T01:31:35.053Z,11.50
2023-05-15T01:34:05.170Z,11.52
2023-05-15T01:36:46.309Z,11.59
2023-05-15T01:39:16.157Z,11.52
2023-05-15T01:41:51.228Z,11.46
2023-05-15T01:44:40.492Z,11.35
2023-05-15T01:47:10.684Z,11.34
2023-05-15T01:49:38.475Z,11.43
2023-05-15T01:52:35.126Z,11.42
2023-05-15T01:55:03.153Z,11.40
2023-05-15T01:57:31.651Z,11.39
2023-05-15T01:59:59.273Z,11.37
2023-05-15T02:02:28.114Z,11.35
2023-05-15T02:04:55.923Z,11.33
2023-05-15T02:07:24.377Z,11.32
2023-05-15T02:09:54.322Z,11.24
2023-05-15T02:12:21.824Z,11.27
2023-05-15T02:14:50.308Z,11.27
2023-05-15T02:17:16.909Z,11.21
2023-05-15T02:19:43.756Z,11.09
2023-05-15T02:22:10.660Z,11.08
2023-05-15T02:24:37.068Z,11.05
2023-05-15T02:27:17.395Z,11.22
2023-05-15T02:29:49.689Z,11.31
2023-05-15T02:32:31.346Z,11.25
2023-05-15T02:35:19.398Z,11.24
2023-05-15T02:37:49.386Z,11.13
2023-05-15T02:40:16.705Z,11.05
2023-05-15T02:42:46.166Z,10.95
2023-05-15T02:45:12.946Z,10.94
2023-05-15T02:47:40.980Z,10.87
2023-05-15T02:50:08.787Z,10.86
2023-05-15T02:52:35.582Z,10.89
2023-05-15T02:55:02.135Z,10.94
2023-05-15T02:57:28.667Z,10.98
2023-05-15T02:59:56.900Z,11.03
2023-05-15T03:02:23.465Z,10.90
2023-05-15T03:04:49.863Z,10.83
2023-05-15T03:07:16.370Z,10.85
2023-05-15T03:09:42.828Z,11.01
2023-05-15T03:12:10.023Z,11.03
2023-05-15T03:14:36.615Z,10.97
2023-05-15T03:17:03.402Z,10.95
2023-05-15T03:19:29.880Z,11.00
2023-05-15T03:21:56.298Z,10.99
2023-05-15T03:24:22.740Z,10.97
2023-05-15T03:26:49.175Z,10.95
2023-05-15T03:29:24.988Z,10.98
2023-05-15T03:31:52.638Z,10.97
2023-05-15T03:34:19.222Z,10.97
2023-05-15T03:36:45.742Z,11.04
2023-05-15T03:39:12.184Z,11.02
2023-05-15T03:41:38.696Z,11.05
2023-05-15T03:44:05.417Z,11.08
2023-05-15T03:46:31.842Z,11.12
2023-05-15T03:48:58.401Z,11.17
2023-05-15T03:51:25.168Z,11.18
2023-05-15T03:53:51.684Z,11.18
2023-05-15T03:56:18.162Z,11.23
2023-05-15T03:58:44.876Z,11.13
2023-05-15T04:01:11.270Z,11.02
2023-05-15T04:03:37.744Z,11.05
2023-05-15T04:06:04.508Z,11.12
2023-05-15T04:08:30.920Z,11.19
2023-05-15T04:10:57.324Z,11.14
2023-05-15T04:13:23.740Z,11.13
2023-05-15T04:15:50.267Z,11.14
2023-05-15T04:18:16.686Z,11.13
2023-05-15T04:20:43.124Z,11.12
2023-05-15T04:23:14.438Z,11.17
2023-05-15T04:25:46.098Z,11.04
2023-05-15T04:28:13.574Z,11.00
2023-05-15T04:30:39.997Z,11.04
2023-05-15T04:33:06.609Z,11.14
2023-05-15T04:35:33.249Z,11.10
2023-05-15T04:37:59.668Z,11.06
2023-05-15T04:40:26.124Z,11.06
2023-05-15T04:42:52.594Z,11.06
2023-05-15T04:45:19.012Z,11.05
2023-05-15T04:47:45.749Z,11.04
2023-05-15T04:50:12.306Z,11.07
2023-05-15T04:52:38.780Z,11.15
2023-05-15T04:55:05.857Z,11.26
2023-05-15T04:57:32.263Z,11.39
2023-05-15T04:59:58.644Z,11.41
2023-05-15T05:02:25.412Z,11.42
2023-05-15T05:04:51.849Z,11.43
2023-05-15T05:07:18.969Z,11.49
2023-05-15T05:09:45.807Z,11.57
2023-05-15T05:12:12.261Z,11.68
2023-05-15T05:14:40.767Z,11.80
2023-05-15T05:17:07.411Z,11.86
2023-05-15T05:19:40.108Z,11.88
2023-05-15T05:22:08.688Z,11.99
2023-05-15T05:24:38.160Z,12.03
2023-05-15T05:27:14.484Z,12.09
2023-05-15T05:29:43.370Z,12.13
2023-05-15T05:32:09.874Z,12.18
2023-05-15T05:34:45.892Z,12.16
2023-05-15T05:37:14.027Z,12.16
2023-05-15T05:39:40.589Z,12.29
2023-05-15T05:42:07.092Z,12.39
2023-05-15T05:44:34.730Z,12.40
2023-05-15T05:47:01.181Z,12.43
2023-05-15T05:49:27.813Z,12.39
2023-05-15T05:51:54.224Z,12.40
2023-05-15T05:54:20.842Z,12.42
2023-05-15T05:56:47.442Z,12.46
2023-05-15T05:59:13.998Z,12.47
2023-05-15T06:01:40.797Z,12.46
2023-05-15T06:04:19.380Z,12.46
2023-05-15T06:06:45.962Z,12.41
2023-05-15T06:09:12.470Z,12.44
2023-05-15T06:11:38.954Z,12.50
2023-05-15T06:14:05.540Z,12.54
2023-05-15T06:16:32.000Z,12.58
2023-05-15T06:18:58.504Z,12.55
2023-05-15T06:21:25.151Z,12.58
2023-05-15T06:23:51.599Z,12.57
2023-05-15T06:26:18.088Z,12.54
2023-05-15T06:28:44.502Z,12.56
2023-05-15T06:31:11.109Z,12.67
2023-05-15T06:33:37.535Z,12.72
2023-05-15T06:36:04.685Z,12.77
2023-05-15T06:38:31.312Z,12.69
2023-05-15T06:41:06.793Z,12.80
2023-05-15T06:43:38.347Z,12.85
2023-05-15T06:46:05.364Z,12.83
2023-05-15T06:48:31.875Z,12.80
2023-05-15T06:50:58.676Z,12.83
2023-05-15T06:53:26.013Z,12.85
2023-05-15T06:55:54.031Z,12.84
2023-05-15T06:58:25.719Z,12.76
2023-05-15T07:00:59.545Z,12.75
2023-05-15T07:03:27.663Z,12.82
2023-05-15T07:06:00.119Z,13.01
2023-05-15T07:08:26.963Z,13.02
2023-05-15T07:10:58.186Z,13.07
2023-05-15T07:13:24.488Z,13.05
2023-05-15T07:15:51.163Z,12.99
2023-05-15T07:18:23.450Z,12.97
2023-05-15T07:20:54.718Z,13.01
2023-05-15T07:23:21.684Z,12.99
2023-05-15T07:25:54.536Z,13.02
2023-05-15T07:28:22.191Z,13.04
2023-05-15T07:30:48.784Z,13.15
2023-05-15T07:33:15.637Z,13.23
2023-05-15T07:35:42.238Z,13.35
2023-05-15T07:38:16.923Z,13.52
2023-05-15T07:40:43.645Z,13.50
2023-05-15T07:43:19.812Z,13.57
2023-05-15T07:45:46.595Z,13.49
2023-05-15T07:48:17.546Z,13.36
2023-05-15T07:50:46.305Z,13.30
2023-05-15T07:53:13.612Z,13.40
2023-05-15T07:55:41.338Z,13.43
2023-05-15T07:58:08.165Z,13.46
2023-05-15T08:00:34.573Z,13.40
2023-05-15T08:03:01.143Z,13.55
2023-05-15T08:05:27.933Z,13.58
2023-05-15T08:07:54.477Z,13.53
2023-05-15T08:10:21.210Z,13.44
2023-05-15T08:12:48.565Z,13.40
2023-05-15T08:15:15.074Z,13.51
2023-05-15T08:17:41.878Z,13.65
2023-05-15T08:20:12.828Z,13.80
2023-05-15T08:22:39.298Z,13.96
2023-05-15T08:25:07.038Z,14.09
2023-05-15T08:27:38.985Z,14.12
2023-05-15T08:30:06.181Z,14.36
2023-05-15T08:32:32.618Z,14.49
2023-05-15T08:34:59.297Z,14.69
2023-05-15T08:37:25.741Z,14.83
2023-05-15T08:39:52.231Z,14.93
2023-05-15T08:42:28.271Z,15.11
2023-05-15T08:44:55.945Z,15.31
2023-05-15T08:47:22.633Z,15.52
2023-05-15T08:50:15.116Z,15.64
2023-05-15T08:52:42.997Z,15.76
2023-05-15T08:55:10.937Z,15.80
2023-05-15T08:57:38.427Z,15.80
2023-05-15T09:00:09.409Z,16.00
2023-05-15T09:02:37.494Z,16.36
2023-05-15T09:05:05.383Z,16.56
2023-05-15T09:07:32.317Z,16.68
2023-05-15T09:10:09.499Z,16.85
2023-05-15T09:12:43.041Z,16.95
2023-05-15T09:15:18.012Z,16.58
2023-05-15T09:17:45.867Z,16.13
2023-05-15T09:20:37.341Z,16.14
2023-05-15T09:23:06.113Z,16.50
2023-05-15T09:25:43.329Z,16.92
2023-05-15T09:28:11.712Z,17.00
2023-05-15T09:30:39.444Z,17.18
2023-05-15T09:33:06.012Z,17.54
2023-05-15T09:35:37.352Z,17.74
2023-05-15T09:38:09.149Z,18.19
2023-05-15T09:40:35.822Z,18.01
2023-05-15T09:43:02.294Z,17.77
2023-05-15T09:45:30.256Z,17.47
2023-05-15T09:48:00.244Z,17.56
2023-05-15T09:50:41.623Z,17.90
2023-05-15T09:53:11.138Z,18.22
2023-05-15T09:55:37.641Z,18.13
2023-05-15T09:58:09.063Z,17.96
2023-05-15T10:00:36.470Z,18.19
2023-05-15T10:03:15.738Z,18.47
2023-05-15T10:05:44.125Z,18.57
2023-05-15T10:08:11.314Z,18.53
2023-05-15T10:10:38.143Z,18.75
2023-05-15T10:13:10.803Z,18.59
2023-05-15T10:15:38.953Z,19.12
2023-05-15T10:18:06.433Z,19.19
2023-05-15T10:20:35.621Z,19.21
2023-05-15T10:23:04.546Z,18.97
2023-05-15T10:25:59.064Z,18.93
2023-05-15T10:28:26.669Z,18.76
2023-05-15T10:30:55.079Z,18.96
2023-05-15T10:33:22.153Z,18.96
2023-05-15T10:35:51.724Z,18.99
2023-05-15T10:38:19.534Z,19.09
2023-05-15T10:40:47.226Z,18.89
2023-05-15T10:43:14.269Z,18.89
2023-05-15T10:45:41.593Z,18.83
2023-05-15T10:48:12.048Z,18.83
2023-05-15T10:50:38.620Z,18.80
2023-05-15T10:53:05.742Z,18.90
2023-05-15T10:55:32.322Z,18.70
2023-05-15T10:57:58.878Z,18.59
2023-05-15T11:00:27.930Z,18.69
2023-05-15T11:02:56.917Z,18.60
2023-05-15T11:05:24.668Z,18.69
2023-05-15T11:08:15.772Z,18.70
2023-05-15T11:10:42.264Z,18.58
2023-05-15T11:13:08.767Z,18.77
2023-05-15T11:15:43.318Z,18.71
2023-05-15T11:18:10.091Z,18.82
2023-05-15T11:20:41.324Z,18.89
2023-05-15T11:23:08.664Z,19.21
2023-05-15T11:25:36.254Z,19.13
2023-05-15T11:28:04.665Z,19.17
2023-05-15T11:30:39.989Z,19.23
2023-05-15T11:33:13.412Z,19.16
2023-05-15T11:35:39.895Z,19.13
2023-05-15T11:38:16.612Z,19.26
2023-05-15T11:40:46.769Z,18.99
2023-05-15T11:43:24.687Z,18.89
2023-05-15T11:45:56.348Z,19.05
2023-05-15T11:48:24.774Z,19.14
2023-05-15T11:50:53.941Z,18.99
2023-05-15T11:53:20.726Z,19.31
2023-05-15T11:55:47.346Z,19.37
2023-05-15T11:58:18.518Z,19.14
2023-05-15T12:00:47.717Z,18.93
2023-05-15T12:03:16.647Z,19.23
2023-05-15T12:05:54.203Z,19.25
2023-05-15T12:08:24.561Z,19.18
2023-05-15T12:10:50.965Z,19.31
2023-05-15T12:13:18.602Z,19.22
2023-05-15T12:15:46.724Z,19.11
2023-05-15T12:18:13.876Z,19.22
2023-05-15T12:20:46.257Z,19.28
2023-05-15T12:23:16.355Z,19.28
2023-05-15T12:25:44.461Z,19.34
2023-05-15T12:28:12.376Z,19.24
2023-05-15T12:30:39.726Z,19.38
2023-05-15T12:33:08.501Z,19.58
2023-05-15T12:35:43.671Z,19.70
2023-05-15T12:38:15.665Z,19.72
2023-05-15T12:40:44.046Z,19.76
2023-05-15T12:43:10.777Z,19.80
2023-05-15T12:45:42.559Z,19.80
2023-05-15T12:48:14.865Z,19.71
2023-05-15T12:50:44.611Z,19.91
2023-05-15T12:53:14.801Z,20.15
2023-05-15T12:55:41.558Z,19.99
2023-05-15T12:58:13.015Z,19.95
2023-05-15T13:00:41.980Z,19.88
2023-05-15T13:03:10.661Z,19.93
2023-05-15T13:05:38.195Z,19.90
2023-05-15T13:08:07.273Z,19.76
2023-05-15T13:10:36.199Z,19.94
2023-05-15T13:13:02.810Z,20.08
2023-05-15T13:15:37.184Z,20.14
2023-05-15T13:18:21.782Z,20.05
2023-05-15T13:20:51.603Z,20.10
2023-05-15T13:23:20.491Z,19.93
2023-05-15T13:25:47.317Z,19.89
2023-05-15T13:28:14.045Z,20.02
2023-05-15T13:30:41.817Z,20.04
2023-05-15T13:33:11.785Z,19.98
2023-05-15T13:35:39.827Z,20.01
2023-05-15T13:38:07.611Z,20.04
2023-05-15T13:40:37.340Z,20.01
2023-05-15T13:43:04.273Z,19.95
2023-05-15T13:45:30.809Z,19.99
2023-05-15T13:47:57.459Z,20.08
2023-05-15T13:50:24.127Z,20.16
2023-05-15T13:52:50.877Z,20.29
2023-05-15T13:55:23.091Z,20.26
2023-05-15T13:57:50.162Z,20.14
2023-05-15T14:00:17.348Z,20.14
2023-05-15T14:02:44.587Z,20.14
2023-05-15T14:05:13.466Z,19.96
2023-05-15T14:07:40.573Z,20.06
2023-05-15T14:10:08.088Z,20.16
2023-05-15T14:12:35.021Z,20.19
2023-05-15T14:15:01.621Z,20.11
2023-05-15T14:17:28.553Z,20.09
2023-05-15T14:19:55.287Z,20.03
2023-05-15T14:22:24.952Z,20.08
2023-05-15T14:24:52.487Z,20.17
2023-05-15T14:27:19.434Z,20.17
2023-05-15T14:29:46.008Z,20.19
2023-05-15T14:32:12.639Z,20.16
2023-05-15T14:34:39.091Z,20.17
2023-05-15T14:37:05.580Z,20.23
2023-05-15T14:39:32.797Z,20.34
2023-05-15T14:41:59.395Z,20.39
2023-05-15T14:44:25.985Z,20.34
2023-05-15T14:47:07.960Z,20.34
2023-05-15T14:49:35.798Z,20.38
2023-05-15T14:52:03.633Z,20.43
2023-05-15T14:54:30.154Z,20.40
2023-05-15T14:56:57.710Z,20.46
2023-05-15T14:59:28.096Z,20.51
2023-05-15T15:01:54.635Z,20.54
2023-05-15T15:04:21.049Z,20.58
2023-05-15T15:06:48.014Z,20.61
2023-05-15T15:09:14.573Z,20.68
2023-05-15T15:11:41.330Z,20.72
2023-05-15T15:14:07.789Z,20.70
2023-05-15T15:16:34.438Z,20.67
2023-05-15T15:19:01.029Z,20.74
2023-05-15T15:21:27.834Z,20.67
2023-05-15T15:23:55.137Z,20.70
2023-05-15T15:26:26.060Z,20.74
2023-05-15T15:28:52.675Z,20.79
2023-05-15T15:31:22.713Z,20.80
2023-05-15T15:33:51.969Z,20.75
2023-05-15T15:36:19.054Z,20.70
2023-05-15T15:38:46.037Z,20.68
2023-05-15T15:41:13.123Z,20.64
2023-05-15T15:43:40.669Z,20.74
2023-05-15T15:46:11.882Z,20.68
2023-05-15T15:48:38.393Z,20.70
2023-05-15T15:51:05.654Z,20.68
2023-05-15T15:53:34.333Z,20.64
2023-05-15T15:56:01.425Z,20.60
2023-05-15T15:58:29.829Z,20.62
2023-05-15T16:00:57.419Z,20.65
2023-05-15T16:03:24.140Z,20.59
2023-05-15T16:05:51.611Z,20.58
2023-05-15T16:08:18.020Z,20.60
2023-05-15T16:10:44.751Z,20.54
2023-05-15T16:13:11.687Z,20.52
2023-05-15T16:15:38.105Z,20.49
2023-05-15T16:18:04.686Z,20.48
2023-05-15T16:20:32.327Z,20.48
2023-05-15T16:22:59.314Z,20.51
2023-05-15T16:25:25.780Z,20.54
2023-05-15T16:27:52.329Z,20.54
2023-05-15T16:30:18.850Z,20.49
2023-05-15T16:32:45.517Z,20.46
2023-05-15T16:35:12.057Z,20.44
2023-05-15T16:37:38.867Z,20.39
2023-05-15T16:40:06.096Z,20.39
2023-05-15T16:42:36.571Z,20.35
2023-05-15T16:45:04.116Z,20.29
2023-05-15T16:47:30.562Z,20.35
2023-05-15T16:49:57.026Z,20.31
2023-05-15T16:52:23.503Z,20.24
2023-05-15T16:54:50.421Z,20.27
2023-05-15T16:57:16.827Z,20.27
2023-05-15T16:59:43.421Z,20.26
2023-05-15T17:02:10.042Z,20.22
2023-05-15T17:04:37.536Z,20.23
2023-05-15T17:07:05.037Z,20.19
2023-05-15T17:09:34.152Z,20.16
2023-05-15T17:12:03.298Z,20.11
2023-05-15T17:14:30.785Z,20.06
2023-05-15T17:16:57.203Z,20.05
2023-05-15T17:19:24.220Z,20.01
2023-05-15T17:21:50.845Z,19.95
2023-05-15T17:24:17.331Z,19.94
2023-05-15T17:26:43.739Z,19.95
2023-05-15T17:29:10.950Z,19.92
2023-05-15T17:31:38.643Z,19.88
2023-05-15T17:34:05.234Z,19.84
2023-05-15T17:36:32.321Z,19.83
2023-05-15T17:38:59.369Z,19.81
2023-05-15T17:41:26.751Z,19.79
2023-05-15T17:43:53.725Z,19.71
2023-05-15T17:46:20.312Z,19.69
2023-05-15T17:48:47.005Z,19.67
2023-05-15T17:51:14.077Z,19.61
2023-05-15T17:53:48.146Z,19.54
2023-05-15T17:56:18.471Z,19.49
2023-05-15T17:58:49.058Z,19.44
2023-05-15T18:01:16.295Z,19.42
2023-05-15T18:03:52.745Z,19.39
2023-05-15T18:06:19.362Z,19.31
2023-05-15T18:08:49.139Z,19.29
2023-05-15T18:11:22.493Z,19.30
2023-05-15T18:13:49.500Z,19.27
2023-05-15T18:16:17.881Z,19.23
2023-05-15T18:18:44.661Z,19.18
2023-05-15T18:21:11.146Z,19.12
2023-05-15T18:23:37.620Z,19.10
2023-05-15T18:26:12.165Z,19.07
2023-05-15T18:28:48.184Z,19.03
2023-05-15T18:31:14.703Z,18.96
2023-05-15T18:33:43.146Z,18.87
2023-05-15T18:36:09.718Z,18.79
2023-05-15T18:38:39.019Z,18.74
2023-05-15T18:41:05.664Z,18.69
2023-05-15T18:43:32.200Z,18.64
2023-05-15T18:45:58.632Z,18.58
2023-05-15T18:48:25.356Z,18.54
2023-05-15T18:50:52.950Z,18.48
2023-05-15T18:53:19.562Z,18.46
2023-05-15T18:55:46.012Z,18.43
2023-05-15T18:58:12.641Z,18.35
2023-05-15T19:00:39.504Z,18.30
2023-05-15T19:03:06.905Z,18.26
2023-05-15T19:05:34.198Z,18.24
2023-05-15T19:08:01.149Z,18.17
2023-05-15T19:10:29.284Z,18.17
2023-05-15T19:12:56.550Z,18.19
2023-05-15T19:15:23.149Z,18.16
2023-05-15T19:17:49.684Z,18.13
2023-05-15T19:20:16.316Z,18.09
2023-05-15T19:22:42.719Z,18.03
2023-05-15T19:25:10.503Z,18.04
2023-05-15T19:27:37.572Z,17.96
2023-05-15T19:30:06.800Z,17.88
2023-05-15T19:32:33.580Z,17.78
2023-05-15T19:35:05.476Z,17.69
2023-05-15T19:37:32.213Z,17.66
2023-05-15T19:39:58.653Z,17.65
2023-05-15T19:42:25.977Z,17.61
2023-05-15T19:44:52.445Z,17.57
2023-05-15T19:47:18.876Z,17.53
2023-05-15T19:49:45.515Z,17.55
2023-05-15T19:52:11.933Z,17.52
2023-05-15T19:54:38.447Z,17.49
2023-05-15T19:57:05.112Z,17.49
2023-05-15T19:59:31.623Z,17.46
2023-05-15T20:01:58.131Z,17.42
2023-05-15T20:04:25.924Z,17.44
2023-05-15T20:06:52.900Z,17.42
2023-05-15T20:09:19.346Z,17.38
2023-05-15T20:11:45.995Z,17.37
2023-05-15T20:14:14.774Z,17.34
2023-05-15T20:16:41.315Z,17.34
2023-05-15T20:19:07.956Z,17.32
2023-05-15T20:21:34.512Z,17.32
2023-05-15T20:24:01.042Z,17.33
2023-05-15T20:26:27.579Z,17.31
2023-05-15T20:28:54.053Z,17.28
2023-05-15T20:31:20.623Z,17.27
2023-05-15T20:33:47.392Z,17.35
2023-05-15T20:36:15.218Z,17.36
2023-05-15T20:38:41.609Z,17.31
2023-05-15T20:41:08.109Z,17.25
2023-05-15T20:43:34.645Z,17.17
2023-05-15T20:46:01.184Z,17.14
2023-05-15T20:48:27.758Z,17.09
2023-05-15T20:50:54.290Z,17.09
2023-05-15T20:53:20.832Z,17.15
2023-05-15T20:55:47.256Z,17.19
2023-05-15T20:58:13.686Z,17.19
2023-05-15T21:00:40.127Z,17.16
2023-05-15T21:03:06.990Z,17.11
2023-05-15T21:05:33.541Z,17.12
2023-05-15T21:08:00.017Z,17.12
2023-05-15T21:10:26.746Z,17.09
2023-05-15T21:12:53.323Z,17.01
2023-05-15T21:15:19.870Z,16.95
2023-05-15T21:17:46.383Z,16.91
2023-05-15T21:20:12.983Z,16.87
2023-05-15T21:22:39.412Z,16.78
2023-05-15T21:25:06.340Z,16.82
2023-05-15T21:27:33.027Z,16.70
2023-05-15T21:29:59.483Z,16.61
2023-05-15T21:32:26.030Z,16.49
2023-05-15T21:34:52.439Z,16.36
2023-05-15T21:37:19.198Z,16.38
2023-05-15T21:39:45.803Z,16.41
2023-05-15T21:42:12.211Z,16.45
2023-05-15T21:44:38.658Z,16.46
2023-05-15T21:47:05.240Z,16.43
2023-05-15T21:49:31.669Z,16.43
2023-05-15T21:51:58.254Z,16.38
2023-05-15T21:54:25.721Z,16.31
2023-05-15T21:56:52.167Z,16.18
2023-05-15T21:59:18.677Z,16.02
2023-05-15T22:01:45.161Z,16.12
2023-05-15T22:04:11.711Z,16.17
2023-05-15T22:06:38.417Z,16.19
2023-05-15T22:09:04.992Z,16.09
2023-05-15T22:11:31.465Z,15.97
2023-05-15T22:13:58.090Z,15.94
2023-05-15T22:16:24.714Z,15.95
2023-05-15T22:18:51.336Z,16.02
2023-05-15T22:21:17.979Z,16.04
2023-05-15T22:23:45.528Z,16.00
2023-05-15T22:26:12.471Z,15.92
2023-05-15T22:28:39.032Z,15.92
2023-05-15T22:31:05.557Z,16.02
2023-05-15T22:33:32.110Z,16.10
2023-05-15T22:35:58.717Z,16.12
2023-05-15T22:38:25.359Z,16.06
2023-05-15T22:40:52.769Z,15.98
2023-05-15T22:43:21.294Z,15.89
2023-05-15T22:45:48.022Z,15.87
2023-05-15T22:48:15.439Z,15.85
2023-05-15T22:50:41.961Z,15.83
2023-05-15T22:53:08.429Z,15.85
2023-05-15T22:55:35.556Z,15.88
2023-05-15T22:58:02.050Z,15.89
2023-05-15T23:00:29.087Z,15.85
2023-05-15T23:02:56.100Z,15.81
2023-05-15T23:05:22.984Z,15.79
2023-05-15T23:07:50.187Z,15.79
2023-05-15T23:10:16.721Z,15.81
2023-05-15T23:12:43.260Z,15.75
2023-05-15T23:15:13.144Z,15.64
2023-05-15T23:17:40.940Z,15.59
2023-05-15T23:20:10.516Z,15.60
2023-05-15T23:22:37.212Z,15.57
2023-05-15T23:25:04.080Z,15.49
2023-05-15T23:27:30.790Z,15.42
2023-05-15T23:29:57.322Z,15.48
2023-05-15T23:32:23.871Z,15.47
2023-05-15T23:34:51.989Z,15.44
2023-05-15T23:37:18.913Z,15.51
2023-05-15T23:39:45.506Z,15.58
2023-05-15T23:42:12.498Z,15.52
2023-05-15T23:44:39.084Z,15.50
2023-05-15T23:47:06.624Z,15.51
2023-05-15T23:49:33.609Z,15.50
2023-05-15T23:52:00.630Z,15.41
2023-05-15T23:54:27.460Z,15.34
2023-05-15T23:56:53.964Z,15.25
2023-05-15T23:59:20.482Z,15.26
